createdAt,value
2022-08-28T00:01:58.209Z,98350.94
2022-08-28T00:04:24.819Z,98358.44
2022-08-28T00:06:51.394Z,98359.72
2022-08-28T00:09:18.132Z,98359.84
2022-08-28T00:11:44.610Z,98348.72
2022-08-28T00:14:11.404Z,98349.13
2022-08-28T00:16:38.235Z,98357.22
2022-08-28T00:19:06.005Z,98347.94
2022-08-28T00:21:33.415Z,98354.59
2022-08-28T00:24:00.648Z,98344.59
2022-08-28T00:26:45.751Z,98354.56
2022-08-28T00:29:12.250Z,98349.47
2022-08-28T00:31:39.666Z,98345.91
2022-08-28T00:34:08.030Z,98346.72
2022-08-28T00:36:35.276Z,98352.25
2022-08-28T00:39:01.971Z,98350.66
2022-08-28T00:41:31.288Z,98349.00
2022-08-28T00:44:20.149Z,98353.97
2022-08-28T00:46:48.932Z,98349.75
2022-08-28T00:49:19.311Z,98352.78
2022-08-28T00:52:17.197Z,98342.88
2022-08-28T00:54:58.559Z,98345.59
2022-08-28T00:57:36.295Z,98348.91
2022-08-28T01:00:08.057Z,98355.78
2022-08-28T01:02:34.866Z,98343.47
2022-08-28T01:05:01.823Z,98340.88
2022-08-28T01:07:28.634Z,98350.63
2022-08-28T01:09:55.869Z,98349.94
2022-08-28T01:12:26.328Z,98349.13
2022-08-28T01:14:58.532Z,98347.13
2022-08-28T01:17:28.576Z,98346.72
2022-08-28T01:19:59.875Z,98339.34
2022-08-28T01:22:32.400Z,98341.56
2022-08-28T01:25:01.229Z,98340.06
2022-08-28T01:27:27.791Z,98345.28
2022-08-28T01:29:54.375Z,98338.63
2022-08-28T01:32:35.944Z,98341.06
2022-08-28T01:35:04.661Z,98333.19
2022-08-28T01:37:31.936Z,98337.53
2022-08-28T01:39:58.472Z,98335.22
2022-08-28T01:42:25.986Z,98330.34
2022-08-28T01:44:54.137Z,98330.16
2022-08-28T01:47:21.620Z,98327.94
2022-08-28T01:49:48.288Z,98326.41
2022-08-28T01:52:14.798Z,98318.03
2022-08-28T01:54:42.260Z,98318.88
2022-08-28T01:57:08.897Z,98324.44
2022-08-28T01:59:35.464Z,98325.63
2022-08-28T02:02:02.037Z,98328.94
2022-08-28T02:04:32.329Z,98329.06
2022-08-28T02:06:59.567Z,98335.44
2022-08-28T02:09:26.063Z,98334.59
2022-08-28T02:11:52.684Z,98333.91
2022-08-28T02:14:19.320Z,98335.44
2022-08-28T02:16:46.497Z,98333.41
2022-08-28T02:19:12.955Z,98330.78
2022-08-28T02:21:40.105Z,98325.94
2022-08-28T02:24:07.024Z,98328.88
2022-08-28T02:26:33.493Z,98339.66
2022-08-28T02:29:00.149Z,98336.44
2022-08-28T02:31:27.639Z,98344.22
2022-08-28T02:33:54.675Z,98355.97
2022-08-28T02:36:23.008Z,98350.03
2022-08-28T02:38:54.115Z,98352.03
2022-08-28T02:41:24.018Z,98350.38
2022-08-28T02:43:50.574Z,98358.03
2022-08-28T02:46:17.226Z,98361.19
2022-08-28T02:48:44.755Z,98351.94
2022-08-28T02:51:14.136Z,98353.06
2022-08-28T02:53:41.997Z,98351.66
2022-08-28T02:56:09.614Z,98346.72
2022-08-28T02:58:36.359Z,98340.06
2022-08-28T03:01:07.010Z,98339.25
2022-08-28T03:03:33.939Z,98342.28
2022-08-28T03:06:02.591Z,98341.06
2022-08-28T03:08:31.593Z,98345.28
2022-08-28T03:10:59.203Z,98345.91
2022-08-28T03:13:27.250Z,98344.69
2022-08-28T03:15:55.594Z,98345.50
2022-08-28T03:18:24.402Z,98343.50
2022-08-28T03:20:52.457Z,98353.78
2022-08-28T03:23:27.752Z,98356.81
2022-08-28T03:25:55.478Z,98355.91
2022-08-28T03:28:22.408Z,98351.34
2022-08-28T03:30:49.703Z,98350.44
2022-08-28T03:33:16.992Z,98347.13
2022-08-28T03:35:43.730Z,98344.19
2022-08-28T03:38:11.656Z,98360.03
2022-08-28T03:40:42.640Z,98352.88
2022-08-28T03:43:17.820Z,98356.63
2022-08-28T03:45:56.560Z,98351.97
2022-08-28T03:48:24.361Z,98358.41
2022-08-28T03:50:53.418Z,98357.72
2022-08-28T03:53:23.678Z,98345.00
2022-08-28T03:55:50.862Z,98354.19
2022-08-28T03:58:19.008Z,98354.38
2022-08-28T04:00:46.756Z,98355.69
2022-08-28T04:03:13.595Z,98353.97
2022-08-28T04:05:41.910Z,98354.91
2022-08-28T04:08:08.968Z,98356.44
2022-08-28T04:10:36.687Z,98355.75
2022-08-28T04:13:03.377Z,98349.34
2022-08-28T04:15:29.936Z,98355.56
2022-08-28T04:17:56.553Z,98352.25
2022-08-28T04:20:23.046Z,98353.25
2022-08-28T04:22:49.952Z,98349.91
2022-08-28T04:25:22.790Z,98362.44
2022-08-28T04:27:50.557Z,98365.41
2022-08-28T04:30:18.788Z,98362.06
2022-08-28T04:32:45.604Z,98366.91
2022-08-28T04:35:13.633Z,98364.59
2022-08-28T04:37:41.216Z,98369.72
2022-08-28T04:40:10.887Z,98373.13
2022-08-28T04:42:40.046Z,98371.72
2022-08-28T04:45:07.483Z,98373.34
2022-08-28T04:47:38.835Z,98374.03
2022-08-28T04:50:07.381Z,98376.88
2022-08-28T04:52:33.850Z,98376.97
2022-08-28T04:55:00.506Z,98377.69
2022-08-28T04:57:26.997Z,98377.19
2022-08-28T04:59:53.514Z,98373.38
2022-08-28T05:02:20.192Z,98379.00
2022-08-28T05:04:47.312Z,98378.69
2022-08-28T05:07:14.058Z,98382.94
2022-08-28T05:09:40.548Z,98381.44
2022-08-28T05:12:07.099Z,98386.38
2022-08-28T05:14:33.659Z,98393.34
2022-08-28T05:17:00.137Z,98392.53
2022-08-28T05:19:27.880Z,98395.25
2022-08-28T05:21:54.487Z,98392.94
2022-08-28T05:24:21.926Z,98399.19
2022-08-28T05:26:48.514Z,98402.13
2022-08-28T05:29:16.751Z,98402.31
2022-08-28T05:31:43.864Z,98406.38
2022-08-28T05:34:10.706Z,98412.31
2022-08-28T05:36:38.628Z,98419.97
2022-08-28T05:39:08.037Z,98418.78
2022-08-28T05:41:34.669Z,98424.81
2022-08-28T05:44:04.735Z,98423.19
2022-08-28T05:46:31.725Z,98427.47
2022-08-28T05:49:00.323Z,98423.91
2022-08-28T05:51:27.853Z,98423.53
2022-08-28T05:53:57.200Z,98419.47
2022-08-28T05:56:29.565Z,98429.25
2022-08-28T05:58:57.343Z,98432.03
2022-08-28T06:01:29.167Z,98424.41
2022-08-28T06:03:59.070Z,98423.63
2022-08-28T06:06:27.663Z,98428.88
2022-08-28T06:09:02.512Z,98420.63
2022-08-28T06:11:30.865Z,98424.47
2022-08-28T06:14:01.569Z,98424.75
2022-08-28T06:16:29.346Z,98430.69
2022-08-28T06:18:55.954Z,98433.31
2022-08-28T06:21:22.410Z,98429.91
2022-08-28T06:23:48.860Z,98433.97
2022-08-28T06:26:15.366Z,98430.81
2022-08-28T06:28:41.945Z,98434.75
2022-08-28T06:31:24.260Z,98438.47
2022-08-28T06:33:56.186Z,98432.63
2022-08-28T06:36:23.801Z,98440.78
2022-08-28T06:38:50.476Z,98435.88
2022-08-28T06:41:17.065Z,98435.56
2022-08-28T06:43:43.548Z,98439.69
2022-08-28T06:46:10.149Z,98439.19
2022-08-28T06:48:36.954Z,98446.84
2022-08-28T06:51:07.382Z,98439.72
2022-08-28T06:53:33.919Z,98443.19
2022-08-28T06:56:08.425Z,98447.66
2022-08-28T06:58:38.692Z,98454.25
2022-08-28T07:01:22.545Z,98450.50
2022-08-28T07:03:51.353Z,98450.56
2022-08-28T07:06:19.159Z,98450.66
2022-08-28T07:08:46.038Z,98444.88
2022-08-28T07:11:13.990Z,98455.69
2022-08-28T07:13:42.092Z,98453.38
2022-08-28T07:16:09.403Z,98449.25
2022-08-28T07:18:36.080Z,98454.31
2022-08-28T07:21:02.760Z,98459.88
2022-08-28T07:23:30.998Z,98456.81
2022-08-28T07:25:57.793Z,98467.47
2022-08-28T07:28:24.504Z,98456.84
2022-08-28T07:30:58.872Z,98467.88
2022-08-28T07:33:27.668Z,98467.47
2022-08-28T07:35:54.712Z,98469.59
2022-08-28T07:38:21.323Z,98466.53
2022-08-28T07:40:48.184Z,98468.22
2022-08-28T07:43:33.555Z,98477.09
2022-08-28T07:46:01.796Z,98482.09
2022-08-28T07:48:28.393Z,98484.94
2022-08-28T07:50:54.954Z,98479.28
2022-08-28T07:53:21.758Z,98479.72
2022-08-28T07:55:51.446Z,98480.91
2022-08-28T07:58:19.326Z,98483.53
2022-08-28T08:00:46.252Z,98484.91
2022-08-28T08:03:14.999Z,98485.41
2022-08-28T08:05:41.551Z,98486.09
2022-08-28T08:08:08.311Z,98484.81
2022-08-28T08:10:34.896Z,98497.63
2022-08-28T08:13:01.419Z,98495.22
2022-08-28T08:15:31.248Z,98495.47
2022-08-28T08:17:57.929Z,98488.09
2022-08-28T08:20:24.377Z,98492.56
2022-08-28T08:22:50.841Z,98496.63
2022-08-28T08:25:17.630Z,98491.88
2022-08-28T08:27:44.101Z,98498.28
2022-08-28T08:30:11.670Z,98498.28
2022-08-28T08:32:40.160Z,98498.47
2022-08-28T08:35:07.358Z,98503.56
2022-08-28T08:37:34.591Z,98499.75
2022-08-28T08:40:01.143Z,98497.78
2022-08-28T08:42:31.281Z,98490.63
2022-08-28T08:44:59.981Z,98494.47
2022-08-28T08:47:43.475Z,98499.06
2022-08-28T08:50:32.306Z,98506.47
2022-08-28T08:53:17.404Z,98508.34
2022-08-28T08:55:47.291Z,98507.75
2022-08-28T08:58:17.490Z,98504.34
2022-08-28T09:01:10.438Z,98504.16
2022-08-28T09:03:44.132Z,98505.00
2022-08-28T09:06:21.358Z,98506.75
2022-08-28T09:08:54.101Z,98513.41
2022-08-28T09:11:44.662Z,98501.47
2022-08-28T09:14:26.959Z,98505.94
2022-08-28T09:16:56.981Z,98498.69
2022-08-28T09:19:23.484Z,98504.47
2022-08-28T09:21:51.873Z,98503.88
2022-08-28T09:24:25.250Z,98499.75
2022-08-28T09:27:01.567Z,98500.00
2022-08-28T09:29:32.052Z,98500.78
2022-08-28T09:32:14.971Z,98503.09
2022-08-28T09:35:00.198Z,98496.44
2022-08-28T09:37:28.049Z,98492.78
2022-08-28T09:40:13.452Z,98499.31
2022-08-28T09:42:58.588Z,98496.41
2022-08-28T09:45:28.337Z,98493.53
2022-08-28T09:47:57.336Z,98491.22
2022-08-28T09:50:39.281Z,98496.00
2022-08-28T09:53:11.712Z,98501.03
2022-08-28T09:55:56.941Z,98498.28
2022-08-28T09:58:38.924Z,98496.84
2022-08-28T10:01:28.242Z,98493.03
2022-08-28T10:04:23.364Z,98495.56
2022-08-28T10:06:58.038Z,98491.16
2022-08-28T10:09:56.457Z,98481.75
2022-08-28T10:12:42.880Z,98484.16
2022-08-28T10:15:21.514Z,98483.34
2022-08-28T10:18:10.354Z,98481.03
2022-08-28T10:20:54.937Z,98476.47
2022-08-28T10:24:00.210Z,98489.84
2022-08-28T10:26:49.446Z,98483.84
2022-08-28T10:29:33.894Z,98495.47
2022-08-28T10:32:20.058Z,98480.13
2022-08-28T10:35:15.815Z,98482.81
2022-08-28T10:38:00.059Z,98489.28
2022-08-28T10:40:32.261Z,98491.66
2022-08-28T10:43:08.487Z,98502.81
2022-08-28T10:45:35.813Z,98490.84
2022-08-28T10:48:22.465Z,98492.25
2022-08-28T10:51:13.625Z,98497.53
2022-08-28T10:53:55.708Z,98494.34
2022-08-28T10:56:28.717Z,98486.66
2022-08-28T10:58:59.069Z,98491.97
2022-08-28T11:01:35.450Z,98485.41
2022-08-28T11:04:08.396Z,98480.47
2022-08-28T11:06:43.188Z,98478.50
2022-08-28T11:09:24.784Z,98479.78
2022-08-28T11:12:01.754Z,98484.94
2022-08-28T11:14:31.001Z,98482.59
2022-08-28T11:17:02.011Z,98469.75
2022-08-28T11:19:52.143Z,98488.09
2022-08-28T11:22:39.474Z,98487.03
2022-08-28T11:25:41.555Z,98480.81
2022-08-28T11:28:15.145Z,98478.03
2022-08-28T11:30:42.888Z,98466.06
2022-08-28T11:33:47.736Z,98466.97
2022-08-28T11:36:20.175Z,98475.72
2022-08-28T11:38:55.862Z,98469.56
2022-08-28T11:41:27.533Z,98465.28
2022-08-28T11:44:02.813Z,98464.50
2022-08-28T11:46:29.368Z,98473.06
2022-08-28T11:48:58.720Z,98469.47
2022-08-28T11:51:40.962Z,98470.78
2022-08-28T11:54:26.425Z,98468.91
2022-08-28T11:57:23.262Z,98465.41
2022-08-28T12:00:05.094Z,98473.84
2022-08-28T12:02:40.501Z,98469.28
2022-08-28T12:05:15.966Z,98467.78
2022-08-28T12:07:45.660Z,98477.44
2022-08-28T12:10:27.551Z,98471.53
2022-08-28T12:13:01.547Z,98469.97
2022-08-28T12:15:27.949Z,98470.91
2022-08-28T12:18:02.853Z,98467.34
2022-08-28T12:20:38.115Z,98469.19
2022-08-28T12:23:23.471Z,98468.72
2022-08-28T12:26:07.043Z,98466.56
2022-08-28T12:28:44.118Z,98453.75
2022-08-28T12:31:45.644Z,98467.94
2022-08-28T12:34:36.765Z,98462.09
2022-08-28T12:37:05.623Z,98453.03
2022-08-28T12:39:33.757Z,98463.75
2022-08-28T12:42:03.416Z,98457.47
2022-08-28T12:44:33.488Z,98464.03
2022-08-28T12:47:00.212Z,98459.28
2022-08-28T12:49:33.060Z,98457.53
2022-08-28T12:52:18.942Z,98458.03
2022-08-28T12:54:47.097Z,98453.66
2022-08-28T12:57:17.496Z,98447.84
2022-08-28T12:59:54.130Z,98446.38
2022-08-28T13:02:31.078Z,98457.97
2022-08-28T13:05:01.878Z,98446.66
2022-08-28T13:07:45.292Z,98441.91
2022-08-28T13:10:25.416Z,98433.69
2022-08-28T13:13:20.859Z,98430.03
2022-08-28T13:16:13.380Z,98432.91
2022-08-28T13:18:50.430Z,98425.50
2022-08-28T13:21:32.574Z,98433.84
2022-08-28T13:24:21.251Z,98434.16
2022-08-28T13:26:50.352Z,98431.56
2022-08-28T13:29:22.826Z,98428.16
2022-08-28T13:31:59.770Z,98421.34
2022-08-28T13:34:29.203Z,98419.47
2022-08-28T13:36:59.761Z,98422.53
2022-08-28T13:39:28.903Z,98416.75
2022-08-28T13:42:04.760Z,98423.38
2022-08-28T13:44:40.766Z,98422.63
2022-08-28T13:47:07.348Z,98416.56
2022-08-28T13:49:35.108Z,98421.06
2022-08-28T13:52:05.200Z,98416.47
2022-08-28T13:54:31.784Z,98411.06
2022-08-28T13:56:58.321Z,98407.00
2022-08-28T13:59:24.772Z,98402.63
2022-08-28T14:02:14.629Z,98402.47
2022-08-28T14:04:41.680Z,98396.88
2022-08-28T14:07:08.365Z,98392.25
2022-08-28T14:09:35.906Z,98396.16
2022-08-28T14:12:03.922Z,98390.53
2022-08-28T14:14:32.175Z,98383.34
2022-08-28T14:16:59.215Z,98392.88
2022-08-28T14:19:25.719Z,98380.19
2022-08-28T14:21:52.718Z,98384.06
2022-08-28T14:24:20.021Z,98382.97
2022-08-28T14:26:47.235Z,98385.00
2022-08-28T14:29:15.525Z,98375.66
2022-08-28T14:31:43.958Z,98369.03
2022-08-28T14:34:16.831Z,98370.91
2022-08-28T14:36:44.102Z,98370.59
2022-08-28T14:39:12.366Z,98366.97
2022-08-28T14:41:44.194Z,98375.19
2022-08-28T14:44:10.676Z,98378.91
2022-08-28T14:46:37.966Z,98377.16
2022-08-28T14:49:09.642Z,98366.63
2022-08-28T14:51:38.581Z,98368.75
2022-08-28T14:54:05.753Z,98369.41
2022-08-28T14:56:32.608Z,98377.84
2022-08-28T14:59:00.769Z,98360.75
2022-08-28T15:01:40.837Z,98367.06
2022-08-28T15:04:11.332Z,98360.50
2022-08-28T15:06:38.569Z,98369.91
2022-08-28T15:09:05.577Z,98358.94
2022-08-28T15:11:32.233Z,98362.03
2022-08-28T15:13:58.758Z,98363.34
2022-08-28T15:16:32.039Z,98358.97
2022-08-28T15:18:59.910Z,98353.97
2022-08-28T15:21:32.811Z,98350.09
2022-08-28T15:24:01.242Z,98353.34
2022-08-28T15:26:29.112Z,98350.63
2022-08-28T15:28:58.231Z,98352.28
2022-08-28T15:31:25.106Z,98353.28
2022-08-28T15:33:51.932Z,98354.19
2022-08-28T15:36:19.545Z,98354.56
2022-08-28T15:39:05.019Z,98356.22
2022-08-28T15:41:31.782Z,98347.91
2022-08-28T15:44:01.723Z,98353.06
2022-08-28T15:46:31.428Z,98351.63
2022-08-28T15:48:58.314Z,98346.84
2022-08-28T15:51:26.084Z,98340.75
2022-08-28T15:53:52.751Z,98337.84
2022-08-28T15:56:19.424Z,98343.97
2022-08-28T15:58:46.143Z,98342.50
2022-08-28T16:01:13.485Z,98348.97
2022-08-28T16:03:40.269Z,98343.78
2022-08-28T16:06:16.146Z,98343.38
2022-08-28T16:08:43.668Z,98337.91
2022-08-28T16:11:11.913Z,98351.66
2022-08-28T16:13:38.433Z,98344.69
2022-08-28T16:16:05.025Z,98343.81
2022-08-28T16:18:31.541Z,98341.47
2022-08-28T16:21:00.476Z,98337.06
2022-08-28T16:23:30.480Z,98340.34
2022-08-28T16:25:56.950Z,98339.47
2022-08-28T16:28:23.393Z,98338.50
2022-08-28T16:30:50.007Z,98336.72
2022-08-28T16:33:20.089Z,98339.47
2022-08-28T16:35:54.897Z,98335.81
2022-08-28T16:38:22.541Z,98339.31
2022-08-28T16:40:49.280Z,98332.63
2022-08-28T16:43:16.063Z,98337.75
2022-08-28T16:45:46.449Z,98332.94
2022-08-28T16:48:14.734Z,98335.81
2022-08-28T16:50:42.645Z,98333.66
2022-08-28T16:53:09.993Z,98334.72
2022-08-28T16:55:37.185Z,98342.94
2022-08-28T16:58:04.360Z,98341.81
2022-08-28T17:00:31.427Z,98341.28
2022-08-28T17:02:57.984Z,98340.19
2022-08-28T17:05:24.944Z,98344.66
2022-08-28T17:07:51.986Z,98334.06
2022-08-28T17:10:21.688Z,98345.16
2022-08-28T17:12:48.399Z,98344.09
2022-08-28T17:15:16.024Z,98340.13
2022-08-28T17:17:42.641Z,98340.31
2022-08-28T17:20:30.563Z,98342.22
2022-08-28T17:22:57.102Z,98345.84
2022-08-28T17:25:24.617Z,98351.25
2022-08-28T17:27:51.217Z,98353.78
2022-08-28T17:30:19.254Z,98348.28
2022-08-28T17:32:46.347Z,98347.16
2022-08-28T17:35:15.181Z,98353.50
2022-08-28T17:37:43.075Z,98355.66
2022-08-28T17:40:12.564Z,98356.31
2022-08-28T17:42:39.456Z,98359.06
2022-08-28T17:45:08.394Z,98352.63
2022-08-28T17:47:35.087Z,98358.66
2022-08-28T17:50:02.573Z,98358.78
2022-08-28T17:52:29.611Z,98368.19
2022-08-28T17:54:56.854Z,98365.66
2022-08-28T17:57:24.739Z,98368.88
2022-08-28T17:59:51.267Z,98371.97
2022-08-28T18:02:18.075Z,98377.81
2022-08-28T18:04:44.947Z,98370.16
2022-08-28T18:07:11.417Z,98364.19
2022-08-28T18:09:38.065Z,98364.88
2022-08-28T18:12:06.330Z,98369.22
2022-08-28T18:14:38.774Z,98366.34
2022-08-28T18:17:05.335Z,98374.72
2022-08-28T18:19:34.069Z,98363.94
2022-08-28T18:22:00.636Z,98377.22
2022-08-28T18:24:27.491Z,98377.91
2022-08-28T18:26:53.977Z,98385.00
2022-08-28T18:29:20.459Z,98386.38
2022-08-28T18:31:46.955Z,98382.84
2022-08-28T18:34:13.504Z,98393.59
2022-08-28T18:36:41.566Z,98395.31
2022-08-28T18:39:09.307Z,98395.31
2022-08-28T18:41:43.058Z,98398.41
2022-08-28T18:44:12.527Z,98399.44
2022-08-28T18:46:39.082Z,98403.09
2022-08-28T18:49:05.647Z,98406.53
2022-08-28T18:51:32.638Z,98405.28
2022-08-28T18:54:03.334Z,98408.75
2022-08-28T18:56:32.468Z,98408.31
2022-08-28T18:59:00.396Z,98424.09
2022-08-28T19:01:26.975Z,98424.91
2022-08-28T19:03:54.591Z,98429.47
2022-08-28T19:06:21.951Z,98434.16
2022-08-28T19:08:48.559Z,98427.50
2022-08-28T19:11:15.942Z,98435.22
2022-08-28T19:13:43.611Z,98441.97
2022-08-28T19:16:14.899Z,98442.09
2022-08-28T19:18:41.363Z,98439.31
2022-08-28T19:21:12.238Z,98442.91
2022-08-28T19:23:44.590Z,98444.13
2022-08-28T19:26:24.566Z,98457.63
2022-08-28T19:28:51.547Z,98455.66
2022-08-28T19:31:18.327Z,98455.97
2022-08-28T19:33:46.615Z,98463.28
2022-08-28T19:36:13.723Z,98464.03
2022-08-28T19:38:40.902Z,98460.16
2022-08-28T19:41:09.538Z,98468.41
2022-08-28T19:43:43.140Z,98468.66
2022-08-28T19:46:18.359Z,98470.22
2022-08-28T19:48:47.783Z,98479.16
2022-08-28T19:51:22.358Z,98473.91
2022-08-28T19:53:56.776Z,98475.53
2022-08-28T19:56:27.090Z,98482.78
2022-08-28T19:58:54.860Z,98482.34
2022-08-28T20:01:21.449Z,98485.44
2022-08-28T20:03:47.943Z,98484.16
2022-08-28T20:06:14.424Z,98490.81
2022-08-28T20:08:40.969Z,98493.09
2022-08-28T20:11:07.759Z,98490.81
2022-08-28T20:13:34.405Z,98499.44
2022-08-28T20:16:05.541Z,98506.66
2022-08-28T20:18:33.372Z,98502.34
2022-08-28T20:21:00.178Z,98511.72
2022-08-28T20:23:26.670Z,98521.78
2022-08-28T20:25:53.140Z,98520.34
2022-08-28T20:28:19.889Z,98517.25
2022-08-28T20:30:46.930Z,98519.69
2022-08-28T20:33:14.005Z,98524.81
2022-08-28T20:35:40.685Z,98525.28
2022-08-28T20:38:07.244Z,98522.53
2022-08-28T20:40:33.878Z,98523.84
2022-08-28T20:43:00.728Z,98522.06
2022-08-28T20:45:27.403Z,98523.81
2022-08-28T20:47:54.041Z,98532.84
2022-08-28T20:50:20.925Z,98525.44
2022-08-28T20:52:47.422Z,98537.84
2022-08-28T20:55:14.812Z,98538.97
2022-08-28T20:57:41.711Z,98540.25
2022-08-28T21:00:10.116Z,98541.53
2022-08-28T21:02:37.392Z,98542.34
2022-08-28T21:05:04.603Z,98544.44
2022-08-28T21:07:33.462Z,98547.97
2022-08-28T21:10:05.259Z,98542.78
2022-08-28T21:12:33.655Z,98552.81
2022-08-28T21:15:00.340Z,98553.91
2022-08-28T21:17:28.896Z,98547.41
2022-08-28T21:19:59.051Z,98544.50
2022-08-28T21:22:25.630Z,98559.38
2022-08-28T21:24:52.148Z,98558.59
2022-08-28T21:27:18.795Z,98550.38
2022-08-28T21:29:46.157Z,98553.13
2022-08-28T21:32:13.223Z,98553.06
2022-08-28T21:34:39.876Z,98554.81
2022-08-28T21:37:06.539Z,98563.44
2022-08-28T21:39:33.249Z,98561.03
2022-08-28T21:41:59.724Z,98553.34
2022-08-28T21:44:26.359Z,98559.06
2022-08-28T21:46:52.826Z,98555.75
2022-08-28T21:49:19.401Z,98556.22
2022-08-28T21:51:45.898Z,98553.19
2022-08-28T21:54:12.481Z,98556.47
2022-08-28T21:56:39.000Z,98552.81
2022-08-28T21:59:05.480Z,98553.56
2022-08-28T22:01:32.025Z,98551.13
2022-08-28T22:03:58.931Z,98546.25
2022-08-28T22:06:26.421Z,98549.00
2022-08-28T22:08:53.675Z,98551.38
2022-08-28T22:11:21.129Z,98551.19
2022-08-28T22:13:52.312Z,98544.41
2022-08-28T22:16:19.000Z,98551.94
2022-08-28T22:18:45.552Z,98549.38
2022-08-28T22:21:36.264Z,98550.50
2022-08-28T22:24:02.983Z,98545.09
2022-08-28T22:26:29.676Z,98543.41
2022-08-28T22:28:56.823Z,98545.00
2022-08-28T22:31:24.097Z,98551.84
2022-08-28T22:33:51.338Z,98545.69
2022-08-28T22:36:18.264Z,98559.53
2022-08-28T22:38:47.107Z,98555.66
2022-08-28T22:41:20.597Z,98555.56
2022-08-28T22:43:51.589Z,98556.00
2022-08-28T22:46:20.664Z,98560.03
2022-08-28T22:48:47.667Z,98561.38
2022-08-28T22:51:18.395Z,98569.28
2022-08-28T22:53:44.983Z,98564.63
2022-08-28T22:56:12.502Z,98570.28
2022-08-28T22:58:39.296Z,98569.44
2022-08-28T23:01:14.353Z,98573.84
2022-08-28T23:03:41.018Z,98576.13
2022-08-28T23:06:08.023Z,98578.75
2022-08-28T23:08:34.869Z,98576.97
2022-08-28T23:11:02.163Z,98580.31
2022-08-28T23:13:30.338Z,98583.84
2022-08-28T23:15:57.194Z,98574.63
2022-08-28T23:18:23.976Z,98571.50
2022-08-28T23:20:51.516Z,98572.28
2022-08-28T23:23:18.977Z,98568.56
2022-08-28T23:25:45.440Z,98571.28
2022-08-28T23:28:12.635Z,98570.50
2022-08-28T23:30:41.252Z,98565.84
2022-08-28T23:33:18.567Z,98572.28
2022-08-28T23:35:49.791Z,98567.25
2022-08-28T23:38:16.426Z,98572.41
2022-08-28T23:40:43.142Z,98565.03
2022-08-28T23:43:10.195Z,98561.81
2022-08-28T23:45:39.403Z,98567.75
2022-08-28T23:48:06.295Z,98568.66
2022-08-28T23:50:32.767Z,98561.19
2022-08-28T23:52:59.855Z,98555.94
2022-08-28T23:55:27.325Z,98559.75
2022-08-28T23:57:54.331Z,98551.09
